Time;durP1;ratioP1;P1;durP2;ratioP2;P2;SDS_P1;SDS_P2;PMS_P1;PMS_P2;Temp;Humidity;BMP_temperature;BMP_pressure;BME280_temperature;BME280_humidity;BME280_pressure;Samples;Min_cycle;Max_cycle;Signal;HPM_P1;HPM_P2
2021/12/06 00:01:44;;;;;;;7.03;6.17;;;6.60;99.90;;;;;;5013464;28;20643;-60
2021/12/06 00:04:15;;;;;;;10.23;6.40;;;6.80;99.90;;;;;;5006084;28;20224;-59
2021/12/06 00:06:44;;;;;;;7.47;6.30;;;6.70;99.90;;;;;;5013391;28;20467;-59
2021/12/06 00:09:14;;;;;;;10.50;6.37;;;6.50;99.90;;;;;;5031421;28;20450;-59
2021/12/06 00:11:39;;;;;;;8.30;7.43;;;6.40;99.90;;;;;;5010496;28;20525;-59
2021/12/06 00:14:06;;;;;;;8.10;7.00;;;6.60;99.90;;;;;;5015853;28;20732;-60
2021/12/06 00:16:32;;;;;;;9.57;6.10;;;6.60;99.90;;;;;;5013852;28;20560;-60
2021/12/06 00:18:58;;;;;;;8.80;6.37;;;6.30;99.90;;;;;;5012239;28;20451;-60
2021/12/06 00:21:24;;;;;;;6.60;5.90;;;6.60;99.90;;;;;;5014047;28;20223;-60
2021/12/06 00:23:50;;;;;;;9.57;7.70;;;6.60;99.90;;;;;;5011840;28;20435;-60
2021/12/06 00:26:16;;;;;;;7.53;6.63;;;6.60;99.90;;;;;;5017504;28;20794;-59
2021/12/06 00:28:45;;;;;;;13.43;7.70;;;6.50;99.90;;;;;;5017997;28;20458;-59
2021/12/06 00:31:12;;;;;;;9.47;8.10;;;6.40;99.90;;;;;;5014476;28;20871;-56
2021/12/06 00:33:38;;;;;;;7.30;6.60;;;6.50;99.90;;;;;;5018921;28;20528;-58
2021/12/06 00:36:07;;;;;;;8.27;7.37;;;6.60;99.90;;;;;;5012687;28;20449;-59
2021/12/06 00:38:35;;;;;;;13.53;6.23;;;6.70;99.90;;;;;;5017460;28;20476;-59
2021/12/06 00:41:02;;;;;;;9.27;7.10;;;6.60;99.90;;;;;;5020445;28;20971;-59
2021/12/06 00:43:28;;;;;;;7.43;6.73;;;6.50;99.90;;;;;;5017707;28;20486;-58
2021/12/06 00:45:54;;;;;;;8.00;7.10;;;6.20;99.90;;;;;;5021801;28;21004;-57
2021/12/06 00:48:19;;;;;;;10.40;7.20;;;6.10;99.90;;;;;;5016241;28;20208;-60
2021/12/06 00:50:45;;;;;;;11.20;7.30;;;6.20;99.90;;;;;;5021792;28;20270;-60
2021/12/06 00:53:11;;;;;;;8.67;7.27;;;6.20;99.90;;;;;;5024003;28;20188;-60
2021/12/06 00:55:38;;;;;;;8.67;7.53;;;6.10;99.90;;;;;;5018939;28;20198;-59
2021/12/06 00:58:04;;;;;;;11.73;9.10;;;5.90;99.90;;;;;;5024416;28;20549;-61
2021/12/06 01:00:40;;;;;;;16.13;8.23;;;5.80;99.90;;;;;;5022534;28;20944;-61
2021/12/06 01:03:10;;;;;;;11.67;8.50;;;5.90;99.90;;;;;;5019216;28;20771;-59
2021/12/06 01:05:37;;;;;;;11.47;8.13;;;5.90;99.90;;;;;;5023094;28;20462;-60
2021/12/06 01:08:03;;;;;;;15.20;9.23;;;5.80;99.90;;;;;;5020412;28;20459;-60
2021/12/06 01:10:30;;;;;;;10.10;8.23;;;5.60;99.90;;;;;;5019611;28;20954;-60
2021/12/06 01:12:57;;;;;;;12.27;8.03;;;5.50;99.90;;;;;;5023042;28;20534;-60
2021/12/06 01:15:23;;;;;;;14.73;8.20;;;5.80;99.90;;;;;;5017999;28;20433;-60
2021/12/06 01:17:49;;;;;;;10.90;6.73;;;6.00;99.90;;;;;;5021626;28;20961;-60
2021/12/06 01:20:19;;;;;;;10.20;7.90;;;6.10;99.90;;;;;;5021069;28;20225;-60
2021/12/06 01:22:56;;;;;;;11.80;7.90;;;6.10;99.90;;;;;;5022979;28;20442;-60
2021/12/06 01:30:35;;;;;;;11.43;7.93;;;6.10;99.90;;;;;;5021510;28;20428;-61
2021/12/06 01:41:17;;;;;;;40.20;22.40;;;6.30;99.90;;;;;;5023583;28;20607;-60
2021/12/06 01:44:21;;;;;;;21.77;13.00;;;6.10;99.90;;;;;;5020616;28;20478;-60
2021/12/06 01:46:51;;;;;;;20.43;14.43;;;6.10;99.90;;;;;;4995680;28;20882;-60
2021/12/06 01:49:19;;;;;;;15.97;9.37;;;6.10;99.90;;;;;;4995949;28;20464;-61
2021/12/06 01:51:46;;;;;;;11.70;9.27;;;5.80;99.90;;;;;;5006158;28;20431;-61
2021/12/06 01:54:14;;;;;;;13.93;9.17;;;5.60;99.90;;;;;;5019169;28;20947;-60
2021/12/06 01:56:40;;;;;;;17.77;11.07;;;5.80;99.90;;;;;;5017784;28;20451;-61
2021/12/06 01:59:07;;;;;;;14.90;10.50;;;5.70;99.90;;;;;;5016864;28;20549;-60
2021/12/06 02:01:34;;;;;;;14.40;9.83;;;5.80;99.90;;;;;;5016767;28;20435;-61
2021/12/06 02:04:01;;;;;;;13.37;8.90;;;5.80;99.90;;;;;;5016828;28;20443;-61
2021/12/06 02:06:27;;;;;;;25.80;18.60;;;5.80;99.90;;;;;;5020024;28;20455;-61
2021/12/06 02:08:53;;;;;;;16.03;13.07;;;6.00;99.90;;;;;;5020611;28;20608;-61
2021/12/06 02:11:19;;;;;;;21.47;15.37;;;6.10;99.90;;;;;;5017855;28;20518;-61
2021/12/06 02:13:52;;;;;;;20.10;14.50;;;5.70;99.90;;;;;;5019976;28;20183;-60
2021/12/06 02:16:22;;;;;;;14.93;12.73;;;5.60;99.90;;;;;;5016431;28;20593;-60
2021/12/06 02:18:54;;;;;;;16.00;12.33;;;5.70;99.90;;;;;;5017611;28;20450;-60
2021/12/06 02:21:30;;;;;;;12.97;9.27;;;5.80;99.90;;;;;;5015084;28;20629;-61
2021/12/06 02:23:59;;;;;;;11.90;10.23;;;5.80;99.90;;;;;;5017029;28;20450;-60
2021/12/06 02:26:25;;;;;;;14.23;10.70;;;5.80;99.90;;;;;;5017260;28;20439;-60
2021/12/06 02:28:51;;;;;;;13.50;10.80;;;5.50;99.90;;;;;;5016148;28;20456;-61
2021/12/06 02:31:19;;;;;;;12.43;9.70;;;5.40;99.90;;;;;;5015056;28;20451;-60
2021/12/06 02:33:48;;;;;;;14.40;9.03;;;5.50;99.90;;;;;;5018329;28;20432;-61
2021/12/06 02:36:15;;;;;;;11.20;8.87;;;5.70;99.90;;;;;;5017027;28;20500;-60
2021/12/06 02:38:41;;;;;;;11.63;8.83;;;5.70;99.90;;;;;;5016077;28;20882;-60
2021/12/06 02:41:08;;;;;;;11.23;9.30;;;5.60;99.90;;;;;;5016452;28;20502;-60
2021/12/06 02:43:35;;;;;;;12.10;9.67;;;5.50;99.90;;;;;;5017003;28;20187;-60
2021/12/06 02:46:00;;;;;;;12.13;9.70;;;5.40;99.90;;;;;;5018832;28;20459;-60
2021/12/06 02:48:26;;;;;;;12.13;10.20;;;5.20;99.90;;;;;;5016539;28;20535;-60
2021/12/06 02:50:54;;;;;;;11.57;8.93;;;5.10;99.90;;;;;;5019244;28;20199;-60
2021/12/06 02:53:22;;;;;;;11.20;9.10;;;5.10;99.90;;;;;;5017294;28;20256;-60
2021/12/06 02:55:52;;;;;;;12.93;9.43;;;5.30;99.90;;;;;;5017213;28;20479;-60
2021/12/06 03:01:06;;;;;;;13.23;9.87;;;5.50;99.90;;;;;;5018508;28;20543;-60
2021/12/06 03:03:31;;;;;;;12.53;9.80;;;5.70;99.90;;;;;;5018087;28;20450;-60
2021/12/06 03:05:57;;;;;;;10.60;9.50;;;5.70;99.90;;;;;;5016084;28;21022;-60
2021/12/06 03:08:38;;;;;;;13.67;10.00;;;5.50;99.90;;;;;;5017625;28;20266;-60
2021/12/06 03:11:06;;;;;;;13.43;10.30;;;5.20;99.90;;;;;;5018266;28;20185;-60
2021/12/06 03:13:32;;;;;;;12.13;10.10;;;5.10;99.90;;;;;;5020304;28;20442;-60
2021/12/06 03:15:58;;;;;;;11.30;9.50;;;5.30;99.90;;;;;;5017699;28;20431;-60
2021/12/06 03:18:24;;;;;;;10.77;9.20;;;5.30;99.90;;;;;;5019906;28;20215;-60
2021/12/06 03:20:49;;;;;;;12.83;9.77;;;5.30;99.90;;;;;;5016627;28;20447;-60
2021/12/06 03:23:15;;;;;;;13.17;9.70;;;5.30;99.90;;;;;;5019474;28;20193;-60
2021/12/06 03:25:40;;;;;;;16.77;9.80;;;5.50;99.90;;;;;;5021657;28;20225;-60
2021/12/06 03:28:06;;;;;;;13.13;10.80;;;5.60;99.90;;;;;;5019537;28;20217;-60
2021/12/06 03:30:32;;;;;;;13.10;9.13;;;5.40;99.90;;;;;;5019131;28;20179;-60
2021/12/06 03:32:58;;;;;;;16.50;9.80;;;5.20;99.90;;;;;;5015698;28;20197;-60
2021/12/06 03:35:24;;;;;;;10.97;8.97;;;5.40;99.90;;;;;;5019715;28;20566;-60
2021/12/06 03:37:50;;;;;;;12.10;8.87;;;5.60;99.90;;;;;;5017511;28;20204;-60
2021/12/06 03:40:15;;;;;;;12.27;8.17;;;5.60;99.90;;;;;;5015349;28;20450;-60
2021/12/06 03:42:41;;;;;;;12.43;9.10;;;5.70;99.90;;;;;;5017442;28;20616;-59
2021/12/06 03:45:09;;;;;;;14.00;9.80;;;5.50;99.90;;;;;;5017932;28;20223;-59
2021/12/06 03:47:35;;;;;;;15.67;9.17;;;5.20;99.90;;;;;;5015863;28;20189;-59
2021/12/06 03:50:03;;;;;;;11.50;8.87;;;5.30;99.90;;;;;;5018557;28;20428;-60
2021/12/06 03:52:30;;;;;;;10.87;8.40;;;5.50;99.90;;;;;;5015008;28;20534;-59
2021/12/06 03:54:56;;;;;;;11.57;9.20;;;5.50;99.90;;;;;;5018201;28;20477;-60
2021/12/06 03:57:22;;;;;;;11.23;8.73;;;5.70;99.90;;;;;;5016862;28;20459;-61
2021/12/06 03:59:50;;;;;;;11.17;8.97;;;5.50;99.90;;;;;;5017338;28;20432;-60
2021/12/06 04:02:16;;;;;;;9.43;8.07;;;5.30;99.90;;;;;;5021194;28;20435;-59
2021/12/06 04:04:43;;;;;;;10.93;9.23;;;5.40;99.90;;;;;;5014838;28;20471;-59
2021/12/06 04:07:09;;;;;;;12.47;9.43;;;5.30;99.90;;;;;;5017490;28;20447;-59
2021/12/06 04:09:35;;;;;;;12.43;9.57;;;5.20;99.90;;;;;;5016950;28;20456;-60
2021/12/06 04:12:02;;;;;;;16.40;10.17;;;5.10;99.90;;;;;;5015648;28;20442;-60
2021/12/06 04:14:28;;;;;;;17.43;10.70;;;5.10;99.90;;;;;;5016710;28;20904;-60
2021/12/06 04:16:54;;;;;;;14.83;9.97;;;5.20;99.90;;;;;;5016975;28;20482;-60
2021/12/06 04:19:19;;;;;;;18.10;10.37;;;5.10;99.90;;;;;;5017529;28;21103;-60
2021/12/06 04:21:46;;;;;;;16.90;10.17;;;5.00;99.90;;;;;;5018174;28;20568;-60
2021/12/06 04:24:13;;;;;;;17.87;10.33;;;4.90;99.90;;;;;;5021738;28;20216;-60
2021/12/06 04:26:39;;;;;;;23.23;11.20;;;5.00;99.90;;;;;;5022765;28;20467;-59
2021/12/06 04:29:06;;;;;;;18.60;9.53;;;5.00;99.90;;;;;;5020406;28;20451;-60
2021/12/06 04:31:39;;;;;;;21.00;10.57;;;4.90;99.90;;;;;;5018791;28;20539;-60
2021/12/06 04:34:05;;;;;;;28.80;11.50;;;5.20;99.90;;;;;;5020706;28;20427;-59
2021/12/06 04:36:31;;;;;;;21.30;10.63;;;5.00;99.90;;;;;;5019416;28;20433;-59
2021/12/06 04:38:56;;;;;;;23.63;10.60;;;4.80;99.90;;;;;;5019907;28;20216;-60
2021/12/06 04:41:22;;;;;;;22.63;12.43;;;4.90;99.90;;;;;;5023586;28;20561;-60
2021/12/06 04:43:48;;;;;;;24.40;11.00;;;4.70;99.90;;;;;;5021255;28;20279;-60
2021/12/06 04:46:14;;;;;;;20.83;10.63;;;5.00;99.90;;;;;;5023812;28;20191;-61
2021/12/06 04:48:40;;;;;;;23.67;10.23;;;5.00;99.90;;;;;;5017349;28;20485;-60
2021/12/06 04:51:06;;;;;;;20.03;10.63;;;4.80;99.90;;;;;;5018765;28;20193;-60
2021/12/06 04:53:36;;;;;;;26.20;10.67;;;4.70;99.90;;;;;;5022332;28;20431;-61
2021/12/06 04:56:11;;;;;;;23.70;12.23;;;4.70;99.90;;;;;;5019418;28;20529;-61
2021/12/06 04:58:59;;;;;;;29.40;10.93;;;4.90;99.90;;;;;;5022994;28;20455;-60
2021/12/06 05:01:28;;;;;;;24.40;10.77;;;5.00;99.90;;;;;;5021715;28;20438;-60
2021/12/06 05:03:57;;;;;;;24.40;12.17;;;5.10;99.90;;;;;;5017251;28;20551;-61
2021/12/06 05:06:28;;;;;;;20.17;10.37;;;4.90;99.90;;;;;;5021288;28;20471;-60
2021/12/06 05:08:58;;;;;;;23.13;10.53;;;4.80;99.90;;;;;;5017610;28;20943;-60
2021/12/06 05:11:27;;;;;;;21.40;9.97;;;5.00;99.90;;;;;;5021195;28;20814;-60
2021/12/06 05:13:54;;;;;;;22.50;11.93;;;5.00;99.90;;;;;;5023609;28;20526;-60
2021/12/06 05:16:21;;;;;;;24.30;11.10;;;4.70;99.90;;;;;;5021500;28;20435;-60
2021/12/06 05:18:47;;;;;;;23.60;9.77;;;4.60;99.90;;;;;;5019718;28;20462;-60
2021/12/06 05:21:13;;;;;;;27.10;12.60;;;4.50;99.90;;;;;;5019141;28;22482;-60
2021/12/06 05:23:39;;;;;;;22.20;12.67;;;4.50;99.90;;;;;;5020402;28;20478;-60
2021/12/06 05:26:05;;;;;;;33.63;12.47;;;4.40;99.90;;;;;;5023500;28;20213;-60
2021/12/06 05:28:33;;;;;;;35.83;13.03;;;4.40;99.90;;;;;;5020971;28;20205;-59
2021/12/06 05:31:00;;;;;;;33.17;11.43;;;4.40;99.90;;;;;;5018999;28;20520;-60
2021/12/06 05:33:30;;;;;;;28.97;12.77;;;4.70;99.90;;;;;;5021885;28;20922;-60
2021/12/06 05:35:58;;;;;;;34.90;13.33;;;4.80;99.90;;;;;;5021693;28;20827;-60
2021/12/06 05:38:25;;;;;;;23.03;11.73;;;4.70;99.90;;;;;;5019881;28;20898;-60
2021/12/06 05:40:51;;;;;;;23.13;11.50;;;4.40;99.90;;;;;;5020662;28;20852;-60
2021/12/06 05:43:17;;;;;;;28.87;12.90;;;4.60;99.90;;;;;;5018507;28;20505;-60
2021/12/06 05:45:43;;;;;;;25.60;12.50;;;4.60;99.90;;;;;;5022535;28;20466;-60
2021/12/06 05:48:08;;;;;;;23.43;11.20;;;4.60;99.90;;;;;;5016842;28;20205;-62
2021/12/06 05:50:34;;;;;;;33.03;12.43;;;4.40;99.90;;;;;;5020016;28;20200;-60
2021/12/06 05:53:01;;;;;;;31.73;12.70;;;4.40;99.90;;;;;;5018425;28;20267;-61
2021/12/06 05:55:27;;;;;;;36.30;12.67;;;4.40;99.90;;;;;;5019431;28;20220;-60
2021/12/06 05:57:55;;;;;;;27.83;11.47;;;4.40;99.90;;;;;;5017318;28;20509;-60
2021/12/06 06:00:23;;;;;;;26.23;12.47;;;4.70;99.90;;;;;;5012526;28;20454;-60
2021/12/06 06:02:49;;;;;;;24.57;11.43;;;4.70;99.90;;;;;;5008624;28;20439;-60
2021/12/06 06:05:18;;;;;;;27.30;11.60;;;4.50;99.90;;;;;;5013617;28;20495;-60
2021/12/06 06:07:44;;;;;;;33.93;12.37;;;4.50;99.90;;;;;;5015073;28;20211;-59
2021/12/06 06:10:10;;;;;;;19.70;9.47;;;4.40;99.90;;;;;;5034054;28;20435;-60
2021/12/06 06:12:36;;;;;;;26.80;11.70;;;4.40;99.90;;;;;;5016107;28;20999;-60
2021/12/06 06:15:02;;;;;;;22.77;11.30;;;4.30;99.90;;;;;;5020157;28;20431;-60
2021/12/06 06:17:29;;;;;;;27.47;11.63;;;4.20;99.90;;;;;;5019140;28;20188;-60
2021/12/06 06:19:58;;;;;;;27.27;12.20;;;4.10;99.90;;;;;;5020841;28;20510;-61
2021/12/06 06:22:24;;;;;;;33.43;12.50;;;4.30;99.90;;;;;;5020665;28;20444;-60
2021/12/06 06:24:50;;;;;;;33.03;12.17;;;4.30;99.90;;;;;;5021288;28;20478;-60
2021/12/06 06:27:15;;;;;;;29.63;11.10;;;4.40;99.90;;;;;;5020918;28;20447;-59
2021/12/06 06:29:41;;;;;;;29.73;11.50;;;4.40;99.90;;;;;;5013416;28;20212;-60
2021/12/06 06:32:08;;;;;;;21.20;10.87;;;4.40;99.90;;;;;;5017583;28;20201;-60
2021/12/06 06:34:34;;;;;;;24.33;10.53;;;4.50;99.90;;;;;;5021504;28;20271;-59
2021/12/06 06:37:01;;;;;;;21.90;9.50;;;4.50;99.90;;;;;;5013645;28;20740;-61
2021/12/06 06:39:27;;;;;;;20.40;9.30;;;4.60;99.90;;;;;;5019994;28;20450;-60
2021/12/06 06:41:54;;;;;;;23.77;10.77;;;4.40;99.90;;;;;;5018064;28;20459;-60
2021/12/06 06:44:20;;;;;;;21.23;9.87;;;4.40;99.90;;;;;;5017251;28;20474;-60
2021/12/06 06:46:47;;;;;;;27.40;10.60;;;4.40;99.90;;;;;;5019853;28;20455;-60
2021/12/06 06:49:14;;;;;;;33.03;11.53;;;4.20;99.90;;;;;;5019773;28;20549;-61
2021/12/06 06:51:40;;;;;;;37.30;13.10;;;4.20;99.90;;;;;;5017307;28;20472;-60
2021/12/06 06:54:06;;;;;;;27.87;10.30;;;4.10;99.90;;;;;;5017191;28;20465;-59
2021/12/06 06:56:32;;;;;;;22.43;10.20;;;4.20;99.90;;;;;;5016482;28;20450;-60
2021/12/06 06:58:58;;;;;;;27.53;11.83;;;4.40;99.90;;;;;;5017843;28;20647;-60
2021/12/06 07:01:24;;;;;;;27.87;9.77;;;4.40;99.90;;;;;;5016109;28;20442;-60
2021/12/06 07:03:53;;;;;;;20.73;9.97;;;4.40;99.90;;;;;;5015676;28;20192;-61
2021/12/06 07:06:23;;;;;;;29.90;11.17;;;4.40;99.90;;;;;;5009879;28;20439;-60
2021/12/06 07:08:50;;;;;;;23.33;10.27;;;4.50;99.90;;;;;;5008308;28;20467;-61
2021/12/06 07:11:15;;;;;;;28.30;10.17;;;4.30;99.90;;;;;;5018241;28;20440;-61
2021/12/06 07:13:43;;;;;;;24.90;10.00;;;4.50;99.90;;;;;;5013839;28;20431;-61
2021/12/06 07:16:09;;;;;;;20.87;9.60;;;4.50;99.90;;;;;;5014299;28;20669;-61
2021/12/06 07:18:38;;;;;;;25.93;10.70;;;4.40;99.90;;;;;;5021861;28;20499;-61
2021/12/06 07:21:05;;;;;;;18.43;9.03;;;4.50;99.90;;;;;;5013671;28;20462;-61
2021/12/06 07:23:31;;;;;;;21.63;9.17;;;4.50;99.90;;;;;;5017745;28;20796;-60
2021/12/06 07:25:56;;;;;;;29.60;10.90;;;4.60;99.90;;;;;;5012500;28;20467;-60
2021/12/06 07:28:22;;;;;;;32.83;12.23;;;4.60;99.90;;;;;;5018791;28;20208;-61
2021/12/06 07:30:48;;;;;;;28.93;11.73;;;4.50;99.90;;;;;;5019325;28;20227;-61
2021/12/06 07:33:13;;;;;;;27.47;10.73;;;4.50;99.90;;;;;;5011705;28;20635;-61
2021/12/06 07:35:39;;;;;;;25.33;10.70;;;4.60;99.90;;;;;;5013112;28;20188;-61
2021/12/06 07:38:07;;;;;;;29.63;10.67;;;4.60;99.90;;;;;;5018432;28;20545;-61
2021/12/06 07:40:34;;;;;;;28.73;11.33;;;4.30;99.90;;;;;;5016348;28;20271;-61
2021/12/06 07:43:00;;;;;;;28.00;11.50;;;4.40;99.90;;;;;;5017760;28;20812;-61
2021/12/06 07:45:26;;;;;;;34.47;13.50;;;4.20;99.90;;;;;;5016093;28;20463;-61
2021/12/06 07:47:52;;;;;;;25.20;10.63;;;4.30;99.90;;;;;;5017902;28;20450;-61
2021/12/06 07:50:19;;;;;;;24.93;10.07;;;4.40;99.90;;;;;;5017532;28;20189;-61
2021/12/06 07:52:47;;;;;;;23.07;9.30;;;4.60;99.90;;;;;;5005728;28;20193;-61
2021/12/06 07:55:16;;;;;;;23.50;9.53;;;4.40;99.90;;;;;;5010346;28;21081;-61
2021/12/06 07:57:42;;;;;;;26.03;9.90;;;4.50;99.90;;;;;;5019720;28;20483;-61
2021/12/06 08:00:16;;;;;;;24.83;8.83;;;4.70;99.90;;;;;;5014638;28;20973;-61
2021/12/06 08:02:42;;;;;;;18.50;8.67;;;4.80;99.90;;;;;;5018562;28;20185;-61
2021/12/06 08:07:55;;;;;;;18.40;8.50;;;4.60;99.90;;;;;;5015477;28;20908;-60
2021/12/06 08:10:20;;;;;;;18.80;10.37;;;4.60;99.90;;;;;;5017491;28;20517;-60
2021/12/06 08:12:46;;;;;;;19.83;10.73;;;4.60;99.90;;;;;;5013426;28;20471;-61
2021/12/06 08:15:12;;;;;;;27.37;10.73;;;4.40;99.90;;;;;;5016889;28;20287;-61
2021/12/06 08:17:38;;;;;;;22.80;9.70;;;4.30;99.90;;;;;;5015960;28;20195;-61
2021/12/06 08:20:07;;;;;;;18.53;9.40;;;4.30;99.90;;;;;;5014327;28;20192;-61
2021/12/06 08:22:33;;;;;;;16.50;8.57;;;4.40;99.90;;;;;;5017052;28;20442;-61
2021/12/06 08:24:59;;;;;;;18.17;9.40;;;4.50;99.90;;;;;;5018769;28;20987;-61
2021/12/06 08:27:24;;;;;;;17.00;8.17;;;4.60;99.90;;;;;;5015446;28;20197;-61
2021/12/06 08:29:50;;;;;;;21.50;9.57;;;4.80;99.90;;;;;;5017540;28;20181;-61
2021/12/06 08:32:16;;;;;;;16.77;9.13;;;4.70;99.90;;;;;;5015433;28;20190;-60
2021/12/06 08:34:42;;;;;;;17.33;8.47;;;4.80;99.90;;;;;;5016751;28;20446;-61
2021/12/06 08:37:14;;;;;;;21.07;10.10;;;5.10;99.90;;;;;;5015089;28;20200;-61
2021/12/06 08:39:40;;;;;;;19.73;9.90;;;5.10;99.90;;;;;;5017357;28;20214;-61
2021/12/06 08:42:07;;;;;;;20.13;8.93;;;5.10;99.90;;;;;;5016508;28;20432;-60
2021/12/06 08:44:33;;;;;;;20.83;9.33;;;5.00;99.90;;;;;;5016892;28;20204;-61
2021/12/06 08:47:01;;;;;;;18.10;8.83;;;5.10;99.90;;;;;;5018506;28;20448;-61
2021/12/06 08:49:27;;;;;;;16.07;7.80;;;5.00;99.90;;;;;;5016885;28;20508;-61
2021/12/06 08:51:56;;;;;;;18.73;9.50;;;5.00;99.90;;;;;;5016288;28;20998;-61
2021/12/06 08:54:26;;;;;;;20.33;9.43;;;5.00;99.90;;;;;;5016762;28;20443;-60
2021/12/06 08:56:55;;;;;;;22.70;9.40;;;5.00;99.90;;;;;;5017043;28;20451;-60
2021/12/06 08:59:21;;;;;;;14.23;8.57;;;5.00;99.90;;;;;;5016331;28;21078;-60
2021/12/06 09:01:47;;;;;;;20.93;11.20;;;5.10;99.90;;;;;;5013700;28;20600;-60
2021/12/06 09:04:13;;;;;;;12.23;6.70;;;5.30;99.90;;;;;;5015089;28;20204;-59
2021/12/06 09:06:41;;;;;;;13.13;7.00;;;5.20;99.90;;;;;;5017646;28;20431;-60
2021/12/06 09:09:09;;;;;;;12.67;8.90;;;5.30;99.90;;;;;;5019535;28;20508;-60
2021/12/06 09:11:36;;;;;;;13.60;7.43;;;5.10;99.90;;;;;;5016654;28;20440;-60
2021/12/06 09:14:03;;;;;;;13.93;8.23;;;5.20;99.90;;;;;;5019792;28;20423;-61
2021/12/06 09:16:28;;;;;;;12.10;7.57;;;5.20;99.90;;;;;;5019355;28;20434;-60
2021/12/06 09:18:54;;;;;;;12.90;8.70;;;5.30;99.90;;;;;;5023358;28;20948;-60
2021/12/06 09:21:21;;;;;;;15.10;9.20;;;5.40;99.90;;;;;;5021695;28;20204;-60
2021/12/06 09:23:49;;;;;;;15.10;9.20;;;5.20;99.90;;;;;;5017265;28;20685;-61
2021/12/06 09:26:15;;;;;;;16.83;9.60;;;5.20;99.90;;;;;;5016189;28;20958;-61
2021/12/06 09:28:41;;;;;;;13.67;8.60;;;5.20;99.90;;;;;;5017763;28;20455;-61
2021/12/06 09:31:07;;;;;;;20.20;10.10;;;5.20;99.90;;;;;;5018784;28;20837;-62
2021/12/06 09:33:36;;;;;;;21.57;11.00;;;5.40;99.90;;;;;;5017404;28;20649;-63
2021/12/06 09:36:03;;;;;;;19.97;10.97;;;5.40;99.90;;;;;;5023027;28;20845;-62
2021/12/06 09:38:36;;;;;;;23.13;12.13;;;5.40;99.90;;;;;;5019191;28;20799;-65
2021/12/06 09:41:03;;;;;;;23.00;11.20;;;5.50;99.90;;;;;;5018554;28;20423;-62
2021/12/06 09:43:29;;;;;;;22.60;12.47;;;5.70;99.90;;;;;;5020168;28;20573;-62
2021/12/06 09:45:56;;;;;;;21.23;11.60;;;5.50;99.90;;;;;;5016897;28;20458;-61
2021/12/06 09:48:22;;;;;;;26.87;14.73;;;5.40;99.90;;;;;;5019547;28;20818;-62
2021/12/06 09:51:01;;;;;;;23.00;13.60;;;5.00;99.90;;;;;;5019829;28;20454;-62
2021/12/06 09:53:30;;;;;;;20.40;13.57;;;4.90;99.90;;;;;;5016719;28;20801;-61
2021/12/06 09:56:01;;;;;;;22.90;13.00;;;5.00;99.90;;;;;;5019132;28;20810;-61
2021/12/06 09:58:30;;;;;;;17.67;11.30;;;5.10;99.90;;;;;;5014718;28;20455;-61
2021/12/06 10:01:01;;;;;;;18.30;11.27;;;5.20;99.90;;;;;;5016491;28;21346;-62
2021/12/06 10:03:29;;;;;;;21.93;12.63;;;5.30;99.90;;;;;;5020789;28;20837;-61
2021/12/06 10:06:02;;;;;;;20.83;13.00;;;5.40;99.90;;;;;;5012370;28;20471;-51
2021/12/06 10:08:29;;;;;;;15.60;11.30;;;5.40;99.90;;;;;;5014875;28;21063;-49
2021/12/06 10:10:55;;;;;;;15.70;10.23;;;5.40;99.90;;;;;;5017949;28;20435;-47
2021/12/06 10:13:21;;;;;;;13.63;10.20;;;5.40;99.90;;;;;;5014769;28;20791;-49
2021/12/06 10:15:48;;;;;;;14.53;9.30;;;5.30;99.90;;;;;;5011040;28;20185;-47
2021/12/06 10:18:16;;;;;;;16.50;10.63;;;5.20;99.90;;;;;;5015322;28;20208;-48
2021/12/06 10:20:43;;;;;;;13.33;8.97;;;5.30;99.90;;;;;;5009618;28;20442;-51
2021/12/06 10:23:10;;;;;;;18.13;11.43;;;5.30;99.90;;;;;;5008237;28;20424;-52
2021/12/06 10:25:43;;;;;;;15.97;10.87;;;5.30;99.90;;;;;;5013708;28;20469;-49
2021/12/06 10:28:10;;;;;;;19.43;11.37;;;5.30;99.90;;;;;;5014606;28;20455;-47
2021/12/06 10:30:42;;;;;;;20.07;10.90;;;5.40;99.90;;;;;;5013541;28;20434;-46
2021/12/06 10:33:14;;;;;;;18.47;12.13;;;5.30;99.90;;;;;;5014044;28;20463;-46
2021/12/06 10:35:47;;;;;;;17.60;11.47;;;5.40;99.90;;;;;;5018661;28;20431;-46
2021/12/06 10:38:26;;;;;;;13.33;10.13;;;5.30;99.90;;;;;;5009439;28;21030;-48
2021/12/06 10:40:59;;;;;;;16.43;11.20;;;5.40;99.90;;;;;;5015935;28;20438;-45
2021/12/06 10:43:25;;;;;;;15.40;11.97;;;5.50;99.90;;;;;;5015693;28;20793;-51
2021/12/06 10:45:51;;;;;;;12.13;10.07;;;5.50;99.90;;;;;;5018326;28;20935;-48
2021/12/06 10:48:19;;;;;;;17.40;10.67;;;5.50;99.90;;;;;;5019257;28;20839;-48
2021/12/06 10:50:55;;;;;;;15.27;9.80;;;5.40;99.90;;;;;;5013602;28;20189;-48
2021/12/06 10:53:27;;;;;;;18.27;11.60;;;5.40;99.90;;;;;;5017584;28;20580;-51
2021/12/06 10:55:54;;;;;;;13.13;9.23;;;5.40;99.90;;;;;;5014496;28;21210;-50
2021/12/06 10:58:26;;;;;;;16.90;11.27;;;5.50;99.90;;;;;;5010859;28;20473;-48
2021/12/06 11:00:55;;;;;;;15.27;10.47;;;5.50;99.90;;;;;;5012588;28;20529;-50
2021/12/06 11:03:26;;;;;;;13.40;10.47;;;5.60;99.90;;;;;;5005281;28;20439;-46
2021/12/06 11:05:56;;;;;;;13.77;10.63;;;5.70;99.90;;;;;;5015638;28;20498;-48
2021/12/06 11:08:23;;;;;;;14.57;10.03;;;5.80;99.90;;;;;;5015619;28;20493;-47
2021/12/06 11:10:53;;;;;;;12.63;10.77;;;5.90;99.90;;;;;;5015999;28;20803;-46
2021/12/06 11:13:23;;;;;;;14.43;10.73;;;5.80;99.90;;;;;;5016176;28;20426;-49
2021/12/06 11:16:09;;;;;;;14.37;10.47;;;5.70;99.90;;;;;;5013487;28;20447;-50
2021/12/06 11:18:52;;;;;;;12.13;9.73;;;5.70;99.90;;;;;;5013774;28;20536;-49
2021/12/06 11:21:27;;;;;;;14.37;9.63;;;5.70;99.90;;;;;;5013945;28;20465;-51
2021/12/06 11:23:55;;;;;;;12.47;9.50;;;5.60;99.90;;;;;;5012873;28;21974;-49
2021/12/06 11:26:21;;;;;;;15.10;10.10;;;5.60;99.90;;;;;;5017031;28;20821;-47
2021/12/06 11:28:46;;;;;;;18.03;10.90;;;5.70;99.90;;;;;;5016052;28;21155;-47
2021/12/06 11:31:16;;;;;;;14.73;9.93;;;5.70;99.90;;;;;;5011609;28;20968;-46
2021/12/06 11:33:41;;;;;;;14.90;9.47;;;5.70;99.90;;;;;;5013950;28;20176;-48
2021/12/06 11:36:30;;;;;;;12.67;8.70;;;5.70;99.90;;;;;;5015487;28;20456;-47
2021/12/06 11:39:25;;;;;;;15.53;9.40;;;5.70;99.90;;;;;;5017592;28;20747;-49
2021/12/06 11:41:55;;;;;;;13.03;10.57;;;5.70;99.90;;;;;;5013009;28;20501;-46
2021/12/06 11:44:28;;;;;;;11.17;9.07;;;6.00;99.90;;;;;;5017483;28;20806;-51
2021/12/06 11:47:06;;;;;;;14.70;10.07;;;6.60;99.90;;;;;;5016987;28;20426;-49
2021/12/06 11:49:42;;;;;;;12.13;9.00;;;7.30;99.90;;;;;;5017733;28;20444;-53
2021/12/06 11:52:13;;;;;;;11.43;9.10;;;8.30;99.90;;;;;;5015747;28;20430;-47
2021/12/06 11:54:46;;;;;;;10.77;8.47;;;9.00;99.90;;;;;;5016451;28;20423;-48
2021/12/06 11:57:43;;;;;;;12.50;10.03;;;8.60;99.90;;;;;;5017826;28;20546;-46
2021/12/06 12:00:17;;;;;;;12.20;8.00;;;8.10;99.90;;;;;;5008381;28;20443;-50
2021/12/06 12:02:55;;;;;;;13.70;8.60;;;8.10;99.90;;;;;;5019349;28;20875;-52
2021/12/06 12:05:36;;;;;;;13.37;8.70;;;8.10;99.90;;;;;;5019878;28;20461;-47
2021/12/06 12:08:14;;;;;;;12.10;8.63;;;8.00;99.90;;;;;;5015658;28;20451;-46
2021/12/06 12:10:49;;;;;;;9.40;7.50;;;8.40;99.90;;;;;;5019335;28;20426;-52
2021/12/06 12:13:22;;;;;;;20.70;12.10;;;9.10;99.90;;;;;;5014824;28;20870;-48
2021/12/06 12:15:49;;;;;;;8.53;7.17;;;10.20;99.90;;;;;;5015283;28;20440;-52
2021/12/06 12:18:14;;;;;;;9.93;7.03;;;11.40;99.90;;;;;;5029336;23;20506;-46
2021/12/06 12:20:40;;;;;;;7.03;5.77;;;11.40;99.90;;;;;;5018653;28;20439;-47
2021/12/06 12:23:09;;;;;;;7.20;5.43;;;11.70;99.90;;;;;;5019633;28;20219;-44
2021/12/06 12:25:48;;;;;;;6.97;5.17;;;11.80;99.90;;;;;;5018347;28;20291;-46
2021/12/06 12:28:21;;;;;;;6.50;5.00;;;11.60;99.90;;;;;;5016314;28;21296;-49
2021/12/06 12:30:51;;;;;;;6.93;5.00;;;12.00;99.90;;;;;;5019366;28;20744;-45
2021/12/06 12:33:19;;;;;;;9.20;6.30;;;12.00;99.90;;;;;;5018830;28;20435;-46
2021/12/06 12:35:51;;;;;;;6.40;5.70;;;11.60;99.90;;;;;;4998415;28;20439;-46
2021/12/06 12:38:24;;;;;;;9.80;6.40;;;12.00;99.90;;;;;;5018237;28;20540;-47
2021/12/06 12:40:54;;;;;;;7.73;6.57;;;12.70;99.90;;;;;;5020406;28;21100;-49
2021/12/06 12:43:31;;;;;;;8.00;5.77;;;13.10;99.90;;;;;;5022022;28;21088;-46
2021/12/06 12:45:57;;;;;;;7.10;5.70;;;13.00;99.90;;;;;;5023314;28;20466;-46
2021/12/06 12:48:26;;;;;;;10.40;6.10;;;13.10;99.90;;;;;;5021344;28;20823;-50
2021/12/06 12:51:10;;;;;;;8.23;5.90;;;13.00;99.90;;;;;;5022008;28;20420;-45
2021/12/06 12:53:56;;;;;;;7.27;6.00;;;13.40;99.90;;;;;;5021591;28;20422;-47
2021/12/06 12:56:25;;;;;;;8.17;6.00;;;13.20;99.90;;;;;;5004744;28;21648;-49
2021/12/06 12:58:52;;;;;;;7.43;5.43;;;13.10;99.90;;;;;;5022172;28;20459;-46
2021/12/06 13:01:20;;;;;;;8.13;5.63;;;12.40;99.90;;;;;;5026152;28;20442;-46
2021/12/06 13:04:00;;;;;;;7.07;5.87;;;12.10;99.90;;;;;;5020272;28;20518;-47
2021/12/06 13:06:38;;;;;;;6.00;4.77;;;12.40;99.90;;;;;;5021234;28;20516;-44
2021/12/06 13:09:08;;;;;;;6.30;4.70;;;12.20;99.90;;;;;;5022116;28;20458;-46